sensor_id;sensor_type;location;lat;lon;timestamp;P1;durP1;ratioP1;P2;durP2;ratioP2
39322;SDS011;25036;53.638;10.134;2023-06-26T00:00:34;7.80;;;6.20;;
39322;SDS011;25036;53.638;10.134;2023-06-26T00:01:34;7.87;;;7.07;;
39322;SDS011;25036;53.638;10.134;2023-06-26T00:02:34;7.83;;;6.50;;
39322;SDS011;25036;53.638;10.134;2023-06-26T00:03:34;7.20;;;6.50;;
39322;SDS011;25036;53.638;10.134;2023-06-26T00:04:34;7.57;;;6.33;;
39322;SDS011;25036;53.638;10.134;2023-06-26T00:05:37;6.57;;;5.97;;
39322;SDS011;25036;53.638;10.134;2023-06-26T00:06:37;6.75;;;6.10;;
39322;SDS011;25036;53.638;10.134;2023-06-26T00:07:38;6.60;;;5.93;;
39322;SDS011;25036;53.638;10.134;2023-06-26T00:08:38;6.33;;;5.80;;
39322;SDS011;25036;53.638;10.134;2023-06-26T00:09:38;6.75;;;6.15;;
39322;SDS011;25036;53.638;10.134;2023-06-26T00:10:38;7.10;;;6.40;;
39322;SDS011;25036;53.638;10.134;2023-06-26T00:11:38;6.87;;;5.77;;
39322;SDS011;25036;53.638;10.134;2023-06-26T00:12:39;6.13;;;5.63;;
39322;SDS011;25036;53.638;10.134;2023-06-26T00:13:39;6.27;;;5.77;;
39322;SDS011;25036;53.638;10.134;2023-06-26T00:14:39;7.13;;;6.43;;
39322;SDS011;25036;53.638;10.134;2023-06-26T00:15:39;6.83;;;6.23;;
39322;SDS011;25036;53.638;10.134;2023-06-26T00:16:40;6.90;;;6.22;;
39322;SDS011;25036;53.638;10.134;2023-06-26T00:17:42;7.32;;;6.63;;
39322;SDS011;25036;53.638;10.134;2023-06-26T00:18:42;6.53;;;5.80;;
39322;SDS011;25036;53.638;10.134;2023-06-26T00:19:42;7.38;;;6.68;;
39322;SDS011;25036;53.638;10.134;2023-06-26T00:20:42;8.60;;;6.17;;
39322;SDS011;25036;53.638;10.134;2023-06-26T00:21:43;7.13;;;6.50;;
39322;SDS011;25036;53.638;10.134;2023-06-26T00:22:46;6.70;;;5.97;;
39322;SDS011;25036;53.638;10.134;2023-06-26T00:23:46;7.17;;;6.47;;
39322;SDS011;25036;53.638;10.134;2023-06-26T00:24:46;7.23;;;6.53;;
39322;SDS011;25036;53.638;10.134;2023-06-26T00:25:46;7.03;;;6.33;;
39322;SDS011;25036;53.638;10.134;2023-06-26T00:26:47;7.80;;;7.07;;
39322;SDS011;25036;53.638;10.134;2023-06-26T00:27:48;7.10;;;6.50;;
39322;SDS011;25036;53.638;10.134;2023-06-26T00:28:48;6.70;;;6.10;;
39322;SDS011;25036;53.638;10.134;2023-06-26T00:29:48;7.07;;;6.47;;
39322;SDS011;25036;53.638;10.134;2023-06-26T00:30:48;8.30;;;6.60;;
39322;SDS011;25036;53.638;10.134;2023-06-26T00:31:48;7.93;;;6.37;;
39322;SDS011;25036;53.638;10.134;2023-06-26T00:32:48;7.70;;;6.90;;
39322;SDS011;25036;53.638;10.134;2023-06-26T00:33:48;8.27;;;6.37;;
39322;SDS011;25036;53.638;10.134;2023-06-26T00:34:48;7.37;;;6.60;;
39322;SDS011;25036;53.638;10.134;2023-06-26T00:35:49;6.93;;;6.27;;
39322;SDS011;25036;53.638;10.134;2023-06-26T00:36:49;7.73;;;7.03;;
39322;SDS011;25036;53.638;10.134;2023-06-26T00:37:49;6.80;;;6.20;;
39322;SDS011;25036;53.638;10.134;2023-06-26T00:38:49;6.87;;;6.27;;
39322;SDS011;25036;53.638;10.134;2023-06-26T00:39:49;7.10;;;6.50;;
39322;SDS011;25036;53.638;10.134;2023-06-26T00:40:49;7.10;;;6.40;;
39322;SDS011;25036;53.638;10.134;2023-06-26T00:41:50;7.22;;;6.53;;
39322;SDS011;25036;53.638;10.134;2023-06-26T00:42:50;8.90;;;6.67;;
39322;SDS011;25036;53.638;10.134;2023-06-26T00:43:50;7.33;;;6.37;;
39322;SDS011;25036;53.638;10.134;2023-06-26T00:44:51;7.20;;;6.50;;
39322;SDS011;25036;53.638;10.134;2023-06-26T00:45:51;7.10;;;6.40;;
39322;SDS011;25036;53.638;10.134;2023-06-26T00:46:51;7.05;;;6.30;;
39322;SDS011;25036;53.638;10.134;2023-06-26T00:47:51;7.72;;;6.97;;
39322;SDS011;25036;53.638;10.134;2023-06-26T00:48:52;6.63;;;6.03;;
39322;SDS011;25036;53.638;10.134;2023-06-26T00:49:52;8.68;;;6.28;;
39322;SDS011;25036;53.638;10.134;2023-06-26T00:50:53;6.97;;;6.38;;
39322;SDS011;25036;53.638;10.134;2023-06-26T00:51:53;8.93;;;6.78;;
39322;SDS011;25036;53.638;10.134;2023-06-26T00:52:54;8.45;;;6.90;;
39322;SDS011;25036;53.638;10.134;2023-06-26T00:53:57;8.25;;;6.65;;
39322;SDS011;25036;53.638;10.134;2023-06-26T00:54:57;7.63;;;6.82;;
39322;SDS011;25036;53.638;10.134;2023-06-26T00:55:57;7.40;;;6.70;;
39322;SDS011;25036;53.638;10.134;2023-06-26T00:56:58;7.25;;;6.55;;
39322;SDS011;25036;53.638;10.134;2023-06-26T00:57:58;7.43;;;6.80;;
39322;SDS011;25036;53.638;10.134;2023-06-26T00:58:58;7.30;;;6.60;;
39322;SDS011;25036;53.638;10.134;2023-06-26T00:59:59;7.37;;;6.77;;
39322;SDS011;25036;53.638;10.134;2023-06-26T01:01:00;7.70;;;7.00;;
39322;SDS011;25036;53.638;10.134;2023-06-26T01:02:02;8.23;;;7.10;;
39322;SDS011;25036;53.638;10.134;2023-06-26T01:03:02;7.70;;;7.00;;
39322;SDS011;25036;53.638;10.134;2023-06-26T01:04:02;7.87;;;7.07;;
39322;SDS011;25036;53.638;10.134;2023-06-26T01:05:03;7.80;;;7.10;;
39322;SDS011;25036;53.638;10.134;2023-06-26T01:06:06;7.80;;;7.00;;
39322;SDS011;25036;53.638;10.134;2023-06-26T01:07:06;7.43;;;6.72;;
39322;SDS011;25036;53.638;10.134;2023-06-26T01:08:07;7.40;;;6.70;;
39322;SDS011;25036;53.638;10.134;2023-06-26T01:09:08;7.68;;;6.97;;
39322;SDS011;25036;53.638;10.134;2023-06-26T01:10:08;8.13;;;7.03;;
39322;SDS011;25036;53.638;10.134;2023-06-26T01:11:08;7.88;;;6.70;;
39322;SDS011;25036;53.638;10.134;2023-06-26T01:12:08;7.18;;;6.57;;
39322;SDS011;25036;53.638;10.134;2023-06-26T01:13:09;7.40;;;6.78;;
39322;SDS011;25036;53.638;10.134;2023-06-26T01:14:09;7.30;;;6.60;;
39322;SDS011;25036;53.638;10.134;2023-06-26T01:15:09;7.45;;;6.75;;
39322;SDS011;25036;53.638;10.134;2023-06-26T01:16:09;7.85;;;7.15;;
39322;SDS011;25036;53.638;10.134;2023-06-26T01:17:10;7.00;;;6.30;;
39322;SDS011;25036;53.638;10.134;2023-06-26T01:18:14;7.93;;;6.45;;
39322;SDS011;25036;53.638;10.134;2023-06-26T01:19:24;7.18;;;6.43;;
39322;SDS011;25036;53.638;10.134;2023-06-26T01:20:26;7.35;;;6.40;;
39322;SDS011;25036;53.638;10.134;2023-06-26T01:21:27;8.00;;;6.63;;
39322;SDS011;25036;53.638;10.134;2023-06-26T01:23:58;7.88;;;6.75;;
39322;SDS011;25036;53.638;10.134;2023-06-26T01:26:23;8.43;;;6.85;;
39322;SDS011;25036;53.638;10.134;2023-06-26T01:27:25;7.13;;;6.50;;
39322;SDS011;25036;53.638;10.134;2023-06-26T01:28:26;7.18;;;6.45;;
39322;SDS011;25036;53.638;10.134;2023-06-26T01:29:27;7.95;;;6.30;;
39322;SDS011;25036;53.638;10.134;2023-06-26T01:30:28;8.00;;;6.32;;
39322;SDS011;25036;53.638;10.134;2023-06-26T01:31:28;6.82;;;6.13;;
39322;SDS011;25036;53.638;10.134;2023-06-26T01:32:30;6.80;;;6.10;;
39322;SDS011;25036;53.638;10.134;2023-06-26T01:33:31;6.68;;;6.07;;
39322;SDS011;25036;53.638;10.134;2023-06-26T01:34:31;7.95;;;6.30;;
39322;SDS011;25036;53.638;10.134;2023-06-26T01:35:31;9.13;;;6.90;;
39322;SDS011;25036;53.638;10.134;2023-06-26T01:36:31;7.28;;;6.57;;
39322;SDS011;25036;53.638;10.134;2023-06-26T01:37:32;7.40;;;6.80;;
39322;SDS011;25036;53.638;10.134;2023-06-26T01:38:32;7.18;;;6.38;;
39322;SDS011;25036;53.638;10.134;2023-06-26T01:39:32;12.77;;;7.03;;
39322;SDS011;25036;53.638;10.134;2023-06-26T01:40:32;7.03;;;6.40;;
39322;SDS011;25036;53.638;10.134;2023-06-26T01:41:33;6.80;;;6.20;;
39322;SDS011;25036;53.638;10.134;2023-06-26T01:42:33;7.00;;;6.30;;
39322;SDS011;25036;53.638;10.134;2023-06-26T01:44:42;6.80;;;6.20;;
39322;SDS011;25036;53.638;10.134;2023-06-26T01:45:44;7.85;;;6.47;;
39322;SDS011;25036;53.638;10.134;2023-06-26T01:47:49;7.57;;;6.78;;
39322;SDS011;25036;53.638;10.134;2023-06-26T01:49:56;7.00;;;6.40;;
39322;SDS011;25036;53.638;10.134;2023-06-26T01:50:58;7.05;;;6.40;;
39322;SDS011;25036;53.638;10.134;2023-06-26T01:52:03;7.72;;;6.88;;
39322;SDS011;25036;53.638;10.134;2023-06-26T01:53:10;7.25;;;6.55;;
39322;SDS011;25036;53.638;10.134;2023-06-26T01:54:13;6.80;;;6.20;;
39322;SDS011;25036;53.638;10.134;2023-06-26T01:55:20;7.50;;;6.80;;
39322;SDS011;25036;53.638;10.134;2023-06-26T01:56:21;8.02;;;6.80;;
39322;SDS011;25036;53.638;10.134;2023-06-26T01:57:22;6.90;;;6.30;;
39322;SDS011;25036;53.638;10.134;2023-06-26T01:58:24;7.15;;;6.50;;
39322;SDS011;25036;53.638;10.134;2023-06-26T01:59:25;7.28;;;6.57;;
39322;SDS011;25036;53.638;10.134;2023-06-26T02:00:26;7.60;;;6.90;;
39322;SDS011;25036;53.638;10.134;2023-06-26T02:01:26;7.07;;;6.47;;
39322;SDS011;25036;53.638;10.134;2023-06-26T02:02:28;7.57;;;6.87;;
39322;SDS011;25036;53.638;10.134;2023-06-26T02:03:28;7.13;;;6.53;;
39322;SDS011;25036;53.638;10.134;2023-06-26T02:04:30;6.45;;;5.90;;
39322;SDS011;25036;53.638;10.134;2023-06-26T02:05:30;7.43;;;6.73;;
39322;SDS011;25036;53.638;10.134;2023-06-26T02:06:30;7.32;;;6.70;;
39322;SDS011;25036;53.638;10.134;2023-06-26T02:07:31;7.03;;;6.32;;
39322;SDS011;25036;53.638;10.134;2023-06-26T02:08:31;7.00;;;6.40;;
39322;SDS011;25036;53.638;10.134;2023-06-26T02:09:31;7.13;;;6.53;;
39322;SDS011;25036;53.638;10.134;2023-06-26T02:10:31;7.57;;;6.60;;
39322;SDS011;25036;53.638;10.134;2023-06-26T02:11:31;6.90;;;6.30;;
39322;SDS011;25036;53.638;10.134;2023-06-26T02:12:31;6.97;;;6.27;;
39322;SDS011;25036;53.638;10.134;2023-06-26T02:13:32;7.33;;;6.63;;
39322;SDS011;25036;53.638;10.134;2023-06-26T02:14:32;6.67;;;5.90;;
39322;SDS011;25036;53.638;10.134;2023-06-26T02:15:32;6.90;;;6.23;;
39322;SDS011;25036;53.638;10.134;2023-06-26T02:16:32;6.47;;;5.93;;
39322;SDS011;25036;53.638;10.134;2023-06-26T02:17:33;7.38;;;6.68;;
39322;SDS011;25036;53.638;10.134;2023-06-26T02:18:33;7.20;;;6.50;;
39322;SDS011;25036;53.638;10.134;2023-06-26T02:19:33;7.20;;;6.50;;
39322;SDS011;25036;53.638;10.134;2023-06-26T02:20:33;6.97;;;6.27;;
39322;SDS011;25036;53.638;10.134;2023-06-26T02:21:33;6.87;;;6.17;;
39322;SDS011;25036;53.638;10.134;2023-06-26T02:22:36;6.68;;;6.18;;
39322;SDS011;25036;53.638;10.134;2023-06-26T02:23:36;7.18;;;6.47;;
39322;SDS011;25036;53.638;10.134;2023-06-26T02:24:37;7.43;;;6.45;;
39322;SDS011;25036;53.638;10.134;2023-06-26T02:25:37;6.80;;;6.10;;
39322;SDS011;25036;53.638;10.134;2023-06-26T02:26:37;7.23;;;6.63;;
39322;SDS011;25036;53.638;10.134;2023-06-26T02:27:38;7.87;;;6.37;;
39322;SDS011;25036;53.638;10.134;2023-06-26T02:28:38;7.05;;;6.35;;
39322;SDS011;25036;53.638;10.134;2023-06-26T02:29:38;7.00;;;6.30;;
39322;SDS011;25036;53.638;10.134;2023-06-26T02:30:39;6.90;;;6.22;;
39322;SDS011;25036;53.638;10.134;2023-06-26T02:31:39;7.00;;;6.30;;
39322;SDS011;25036;53.638;10.134;2023-06-26T02:32:39;7.47;;;6.10;;
39322;SDS011;25036;53.638;10.134;2023-06-26T02:33:41;7.23;;;6.47;;
39322;SDS011;25036;53.638;10.134;2023-06-26T02:34:41;7.40;;;6.70;;
39322;SDS011;25036;53.638;10.134;2023-06-26T02:35:41;7.00;;;6.30;;
39322;SDS011;25036;53.638;10.134;2023-06-26T02:36:41;6.50;;;5.90;;
39322;SDS011;25036;53.638;10.134;2023-06-26T02:37:41;6.70;;;6.00;;
39322;SDS011;25036;53.638;10.134;2023-06-26T02:38:41;7.07;;;6.38;;
39322;SDS011;25036;53.638;10.134;2023-06-26T02:39:41;6.43;;;5.83;;
39322;SDS011;25036;53.638;10.134;2023-06-26T02:40:42;6.93;;;6.33;;
39322;SDS011;25036;53.638;10.134;2023-06-26T02:41:42;6.82;;;6.22;;
39322;SDS011;25036;53.638;10.134;2023-06-26T02:42:43;7.20;;;6.45;;
39322;SDS011;25036;53.638;10.134;2023-06-26T02:43:43;6.80;;;6.10;;
39322;SDS011;25036;53.638;10.134;2023-06-26T02:44:43;7.17;;;6.47;;
39322;SDS011;25036;53.638;10.134;2023-06-26T02:45:43;6.50;;;5.90;;
39322;SDS011;25036;53.638;10.134;2023-06-26T02:46:44;6.97;;;6.27;;
39322;SDS011;25036;53.638;10.134;2023-06-26T02:47:44;6.97;;;6.28;;
39322;SDS011;25036;53.638;10.134;2023-06-26T02:48:44;6.77;;;6.20;;
39322;SDS011;25036;53.638;10.134;2023-06-26T02:49:44;7.57;;;6.27;;
39322;SDS011;25036;53.638;10.134;2023-06-26T02:50:44;7.03;;;6.33;;
39322;SDS011;25036;53.638;10.134;2023-06-26T02:51:46;6.82;;;6.05;;
39322;SDS011;25036;53.638;10.134;2023-06-26T02:52:46;6.67;;;5.93;;
39322;SDS011;25036;53.638;10.134;2023-06-26T02:53:50;6.60;;;6.00;;
39322;SDS011;25036;53.638;10.134;2023-06-26T02:54:50;6.73;;;6.13;;
39322;SDS011;25036;53.638;10.134;2023-06-26T02:55:51;6.63;;;6.03;;
39322;SDS011;25036;53.638;10.134;2023-06-26T02:56:51;6.13;;;5.53;;
39322;SDS011;25036;53.638;10.134;2023-06-26T02:57:51;6.82;;;6.15;;
39322;SDS011;25036;53.638;10.134;2023-06-26T02:58:52;6.73;;;6.13;;
39322;SDS011;25036;53.638;10.134;2023-06-26T02:59:52;6.63;;;6.03;;
39322;SDS011;25036;53.638;10.134;2023-06-26T03:00:52;8.10;;;6.30;;
39322;SDS011;25036;53.638;10.134;2023-06-26T03:01:53;7.05;;;5.97;;
39322;SDS011;25036;53.638;10.134;2023-06-26T03:02:53;6.83;;;6.13;;
39322;SDS011;25036;53.638;10.134;2023-06-26T03:03:54;6.93;;;6.23;;
39322;SDS011;25036;53.638;10.134;2023-06-26T03:04:54;7.43;;;6.40;;
39322;SDS011;25036;53.638;10.134;2023-06-26T03:05:54;7.53;;;6.18;;
39322;SDS011;25036;53.638;10.134;2023-06-26T03:06:54;7.30;;;6.40;;
39322;SDS011;25036;53.638;10.134;2023-06-26T03:07:54;6.63;;;5.93;;
39322;SDS011;25036;53.638;10.134;2023-06-26T03:08:55;7.03;;;6.33;;
39322;SDS011;25036;53.638;10.134;2023-06-26T03:09:55;6.83;;;6.20;;
39322;SDS011;25036;53.638;10.134;2023-06-26T03:10:55;6.10;;;5.50;;
39322;SDS011;25036;53.638;10.134;2023-06-26T03:11:55;6.90;;;6.30;;
39322;SDS011;25036;53.638;10.134;2023-06-26T03:12:55;7.03;;;6.38;;
39322;SDS011;25036;53.638;10.134;2023-06-26T03:13:55;6.20;;;5.60;;
39322;SDS011;25036;53.638;10.134;2023-06-26T03:14:55;7.57;;;6.60;;
39322;SDS011;25036;53.638;10.134;2023-06-26T03:15:55;6.87;;;5.97;;
39322;SDS011;25036;53.638;10.134;2023-06-26T03:16:56;6.73;;;6.03;;
39322;SDS011;25036;53.638;10.134;2023-06-26T03:17:58;6.28;;;5.68;;
39322;SDS011;25036;53.638;10.134;2023-06-26T03:18:58;6.50;;;5.90;;
39322;SDS011;25036;53.638;10.134;2023-06-26T03:19:58;6.37;;;5.83;;
39322;SDS011;25036;53.638;10.134;2023-06-26T03:20:58;6.37;;;5.87;;
39322;SDS011;25036;53.638;10.134;2023-06-26T03:21:59;7.38;;;6.30;;
39322;SDS011;25036;53.638;10.134;2023-06-26T03:22:59;6.85;;;6.00;;
39322;SDS011;25036;53.638;10.134;2023-06-26T03:23:59;6.23;;;5.63;;
39322;SDS011;25036;53.638;10.134;2023-06-26T03:25:00;6.17;;;5.57;;
39322;SDS011;25036;53.638;10.134;2023-06-26T03:26:00;6.40;;;5.60;;
39322;SDS011;25036;53.638;10.134;2023-06-26T03:27:00;6.50;;;5.80;;
39322;SDS011;25036;53.638;10.134;2023-06-26T03:28:00;6.33;;;5.73;;
39322;SDS011;25036;53.638;10.134;2023-06-26T03:29:00;7.93;;;5.77;;
39322;SDS011;25036;53.638;10.134;2023-06-26T03:30:00;6.20;;;5.60;;
39322;SDS011;25036;53.638;10.134;2023-06-26T03:31:01;6.68;;;6.07;;
39322;SDS011;25036;53.638;10.134;2023-06-26T03:32:01;6.27;;;5.73;;
39322;SDS011;25036;53.638;10.134;2023-06-26T03:33:01;6.93;;;6.23;;
39322;SDS011;25036;53.638;10.134;2023-06-26T03:34:02;6.53;;;5.93;;
39322;SDS011;25036;53.638;10.134;2023-06-26T03:35:02;6.53;;;5.93;;
39322;SDS011;25036;53.638;10.134;2023-06-26T03:36:03;6.35;;;5.38;;
39322;SDS011;25036;53.638;10.134;2023-06-26T03:37:03;7.03;;;5.60;;
39322;SDS011;25036;53.638;10.134;2023-06-26T03:38:04;6.65;;;5.90;;
39322;SDS011;25036;53.638;10.134;2023-06-26T03:39:04;7.03;;;6.28;;
39322;SDS011;25036;53.638;10.134;2023-06-26T03:40:04;6.30;;;5.65;;
39322;SDS011;25036;53.638;10.134;2023-06-26T03:41:05;6.50;;;5.90;;
39322;SDS011;25036;53.638;10.134;2023-06-26T03:42:05;6.53;;;5.93;;
39322;SDS011;25036;53.638;10.134;2023-06-26T03:43:05;6.18;;;5.57;;
39322;SDS011;25036;53.638;10.134;2023-06-26T03:44:06;6.80;;;6.10;;
39322;SDS011;25036;53.638;10.134;2023-06-26T03:45:06;6.57;;;5.83;;
39322;SDS011;25036;53.638;10.134;2023-06-26T03:46:06;6.28;;;5.68;;
39322;SDS011;25036;53.638;10.134;2023-06-26T03:47:06;6.70;;;5.93;;
39322;SDS011;25036;53.638;10.134;2023-06-26T03:48:06;6.97;;;6.27;;
39322;SDS011;25036;53.638;10.134;2023-06-26T03:49:08;6.50;;;5.90;;
39322;SDS011;25036;53.638;10.134;2023-06-26T03:50:08;7.33;;;5.57;;
39322;SDS011;25036;53.638;10.134;2023-06-26T03:51:08;6.32;;;5.82;;
39322;SDS011;25036;53.638;10.134;2023-06-26T03:52:08;6.72;;;6.05;;
39322;SDS011;25036;53.638;10.134;2023-06-26T03:53:08;6.77;;;5.90;;
39322;SDS011;25036;53.638;10.134;2023-06-26T03:54:08;5.77;;;5.27;;
39322;SDS011;25036;53.638;10.134;2023-06-26T03:55:09;6.63;;;5.77;;
39322;SDS011;25036;53.638;10.134;2023-06-26T03:56:09;7.27;;;6.60;;
39322;SDS011;25036;53.638;10.134;2023-06-26T03:57:09;6.57;;;5.90;;
39322;SDS011;25036;53.638;10.134;2023-06-26T03:58:09;6.83;;;6.13;;
39322;SDS011;25036;53.638;10.134;2023-06-26T03:59:09;6.60;;;5.90;;
39322;SDS011;25036;53.638;10.134;2023-06-26T04:00:10;6.25;;;5.65;;
39322;SDS011;25036;53.638;10.134;2023-06-26T04:01:12;8.43;;;6.60;;
39322;SDS011;25036;53.638;10.134;2023-06-26T04:02:12;6.07;;;5.47;;
39322;SDS011;25036;53.638;10.134;2023-06-26T04:03:12;6.03;;;5.53;;
39322;SDS011;25036;53.638;10.134;2023-06-26T04:04:12;6.77;;;6.07;;
39322;SDS011;25036;53.638;10.134;2023-06-26T04:05:12;6.13;;;5.53;;
39322;SDS011;25036;53.638;10.134;2023-06-26T04:06:13;9.23;;;6.43;;
39322;SDS011;25036;53.638;10.134;2023-06-26T04:07:13;6.60;;;5.93;;
39322;SDS011;25036;53.638;10.134;2023-06-26T04:08:13;6.87;;;6.17;;
39322;SDS011;25036;53.638;10.134;2023-06-26T04:09:13;8.65;;;6.00;;
39322;SDS011;25036;53.638;10.134;2023-06-26T04:10:13;7.40;;;5.73;;
39322;SDS011;25036;53.638;10.134;2023-06-26T04:11:13;6.50;;;5.93;;
39322;SDS011;25036;53.638;10.134;2023-06-26T04:12:14;6.28;;;5.68;;
39322;SDS011;25036;53.638;10.134;2023-06-26T04:13:14;6.53;;;5.72;;
39322;SDS011;25036;53.638;10.134;2023-06-26T04:14:14;6.22;;;5.63;;
39322;SDS011;25036;53.638;10.134;2023-06-26T04:15:14;6.23;;;5.60;;
39322;SDS011;25036;53.638;10.134;2023-06-26T04:16:15;6.40;;;5.80;;
39322;SDS011;25036;53.638;10.134;2023-06-26T04:17:15;7.55;;;6.07;;
39322;SDS011;25036;53.638;10.134;2023-06-26T04:18:15;6.33;;;5.70;;
39322;SDS011;25036;53.638;10.134;2023-06-26T04:19:16;6.30;;;5.77;;
39322;SDS011;25036;53.638;10.134;2023-06-26T04:20:16;6.67;;;5.83;;
39322;SDS011;25036;53.638;10.134;2023-06-26T04:21:16;6.57;;;5.97;;
39322;SDS011;25036;53.638;10.134;2023-06-26T04:22:17;7.90;;;5.57;;
39322;SDS011;25036;53.638;10.134;2023-06-26T04:23:17;6.47;;;5.47;;
39322;SDS011;25036;53.638;10.134;2023-06-26T04:24:17;6.23;;;5.30;;
39322;SDS011;25036;53.638;10.134;2023-06-26T04:25:17;8.03;;;5.87;;
39322;SDS011;25036;53.638;10.134;2023-06-26T04:26:17;6.87;;;5.70;;
39322;SDS011;25036;53.638;10.134;2023-06-26T04:27:18;6.07;;;5.47;;
39322;SDS011;25036;53.638;10.134;2023-06-26T04:28:18;6.50;;;5.90;;
39322;SDS011;25036;53.638;10.134;2023-06-26T04:29:18;7.90;;;5.77;;
39322;SDS011;25036;53.638;10.134;2023-06-26T04:30:18;6.43;;;5.83;;
39322;SDS011;25036;53.638;10.134;2023-06-26T04:31:18;8.10;;;6.67;;
39322;SDS011;25036;53.638;10.134;2023-06-26T04:32:18;6.37;;;5.30;;
39322;SDS011;25036;53.638;10.134;2023-06-26T04:33:18;5.90;;;5.40;;
39322;SDS011;25036;53.638;10.134;2023-06-26T04:34:19;6.57;;;5.57;;
39322;SDS011;25036;53.638;10.134;2023-06-26T04:35:19;6.50;;;5.73;;
39322;SDS011;25036;53.638;10.134;2023-06-26T04:36:21;7.75;;;6.15;;
39322;SDS011;25036;53.638;10.134;2023-06-26T04:37:21;6.75;;;6.10;;
39322;SDS011;25036;53.638;10.134;2023-06-26T04:38:21;6.25;;;5.65;;
39322;SDS011;25036;53.638;10.134;2023-06-26T04:39:22;7.17;;;5.50;;
39322;SDS011;25036;53.638;10.134;2023-06-26T04:40:22;6.95;;;5.88;;
39322;SDS011;25036;53.638;10.134;2023-06-26T04:41:22;5.87;;;5.37;;
39322;SDS011;25036;53.638;10.134;2023-06-26T04:42:22;6.10;;;5.38;;
39322;SDS011;25036;53.638;10.134;2023-06-26T04:43:23;6.38;;;5.32;;
39322;SDS011;25036;53.638;10.134;2023-06-26T04:44:23;7.50;;;5.47;;
39322;SDS011;25036;53.638;10.134;2023-06-26T04:45:23;5.57;;;5.07;;
39322;SDS011;25036;53.638;10.134;2023-06-26T04:46:23;6.33;;;5.67;;
39322;SDS011;25036;53.638;10.134;2023-06-26T04:47:24;8.77;;;6.13;;
39322;SDS011;25036;53.638;10.134;2023-06-26T04:48:24;7.03;;;6.33;;
39322;SDS011;25036;53.638;10.134;2023-06-26T04:49:24;6.17;;;5.57;;
39322;SDS011;25036;53.638;10.134;2023-06-26T04:50:24;6.30;;;5.70;;
39322;SDS011;25036;53.638;10.134;2023-06-26T04:51:25;6.23;;;5.63;;
39322;SDS011;25036;53.638;10.134;2023-06-26T04:52:26;7.13;;;5.85;;
39322;SDS011;25036;53.638;10.134;2023-06-26T04:53:27;6.67;;;5.67;;
39322;SDS011;25036;53.638;10.134;2023-06-26T04:54:27;6.05;;;5.32;;
39322;SDS011;25036;53.638;10.134;2023-06-26T04:55:28;5.90;;;5.30;;
39322;SDS011;25036;53.638;10.134;2023-06-26T04:56:28;9.45;;;5.75;;
39322;SDS011;25036;53.638;10.134;2023-06-26T04:57:30;6.15;;;5.60;;
39322;SDS011;25036;53.638;10.134;2023-06-26T04:58:30;9.50;;;6.18;;
39322;SDS011;25036;53.638;10.134;2023-06-26T04:59:31;8.00;;;5.90;;
39322;SDS011;25036;53.638;10.134;2023-06-26T05:00:31;6.22;;;5.40;;
39322;SDS011;25036;53.638;10.134;2023-06-26T05:01:32;5.80;;;5.18;;
39322;SDS011;25036;53.638;10.134;2023-06-26T05:02:32;6.63;;;5.37;;
39322;SDS011;25036;53.638;10.134;2023-06-26T05:03:32;8.10;;;5.60;;
39322;SDS011;25036;53.638;10.134;2023-06-26T05:04:32;6.78;;;5.60;;
39322;SDS011;25036;53.638;10.134;2023-06-26T05:05:33;6.07;;;5.43;;
39322;SDS011;25036;53.638;10.134;2023-06-26T05:06:33;6.20;;;5.60;;
39322;SDS011;25036;53.638;10.134;2023-06-26T05:07:33;6.03;;;5.43;;
39322;SDS011;25036;53.638;10.134;2023-06-26T05:08:33;7.87;;;5.70;;
39322;SDS011;25036;53.638;10.134;2023-06-26T05:09:33;6.13;;;5.60;;
39322;SDS011;25036;53.638;10.134;2023-06-26T05:10:33;5.90;;;5.40;;
39322;SDS011;25036;53.638;10.134;2023-06-26T05:11:33;7.65;;;6.55;;
39322;SDS011;25036;53.638;10.134;2023-06-26T05:12:34;5.47;;;4.97;;
39322;SDS011;25036;53.638;10.134;2023-06-26T05:13:34;5.33;;;4.83;;
39322;SDS011;25036;53.638;10.134;2023-06-26T05:14:34;7.50;;;5.27;;
39322;SDS011;25036;53.638;10.134;2023-06-26T05:15:34;6.63;;;6.00;;
39322;SDS011;25036;53.638;10.134;2023-06-26T05:16:34;6.30;;;5.70;;
39322;SDS011;25036;53.638;10.134;2023-06-26T05:17:35;6.88;;;5.55;;
39322;SDS011;25036;53.638;10.134;2023-06-26T05:18:35;6.07;;;5.47;;
39322;SDS011;25036;53.638;10.134;2023-06-26T05:19:35;14.15;;;5.97;;
39322;SDS011;25036;53.638;10.134;2023-06-26T05:20:36;9.23;;;6.63;;
39322;SDS011;25036;53.638;10.134;2023-06-26T05:21:36;14.52;;;6.65;;
39322;SDS011;25036;53.638;10.134;2023-06-26T05:22:37;12.25;;;6.15;;
39322;SDS011;25036;53.638;10.134;2023-06-26T05:23:38;8.18;;;5.63;;
39322;SDS011;25036;53.638;10.134;2023-06-26T05:24:39;7.65;;;5.32;;
39322;SDS011;25036;53.638;10.134;2023-06-26T05:25:39;7.47;;;5.43;;
39322;SDS011;25036;53.638;10.134;2023-06-26T05:26:40;7.22;;;5.70;;
39322;SDS011;25036;53.638;10.134;2023-06-26T05:27:40;7.60;;;5.47;;
39322;SDS011;25036;53.638;10.134;2023-06-26T05:28:41;5.93;;;5.40;;
39322;SDS011;25036;53.638;10.134;2023-06-26T05:29:41;5.63;;;5.10;;
39322;SDS011;25036;53.638;10.134;2023-06-26T05:30:41;6.22;;;5.20;;
39322;SDS011;25036;53.638;10.134;2023-06-26T05:31:41;8.57;;;5.35;;
39322;SDS011;25036;53.638;10.134;2023-06-26T05:32:42;5.65;;;5.15;;
39322;SDS011;25036;53.638;10.134;2023-06-26T05:33:43;5.70;;;5.13;;
39322;SDS011;25036;53.638;10.134;2023-06-26T05:34:47;5.88;;;5.30;;
39322;SDS011;25036;53.638;10.134;2023-06-26T05:35:54;7.28;;;5.50;;
39322;SDS011;25036;53.638;10.134;2023-06-26T05:36:58;6.13;;;5.53;;
39322;SDS011;25036;53.638;10.134;2023-06-26T05:37:58;6.60;;;5.38;;
39322;SDS011;25036;53.638;10.134;2023-06-26T05:38:58;7.88;;;5.50;;
39322;SDS011;25036;53.638;10.134;2023-06-26T05:39:59;6.38;;;4.93;;
39322;SDS011;25036;53.638;10.134;2023-06-26T05:40:59;6.25;;;5.65;;
39322;SDS011;25036;53.638;10.134;2023-06-26T05:42:00;5.85;;;5.35;;
39322;SDS011;25036;53.638;10.134;2023-06-26T05:43:00;7.35;;;5.40;;
39322;SDS011;25036;53.638;10.134;2023-06-26T05:44:00;5.97;;;5.25;;
39322;SDS011;25036;53.638;10.134;2023-06-26T05:45:00;5.80;;;5.30;;
39322;SDS011;25036;53.638;10.134;2023-06-26T05:46:00;8.83;;;5.17;;
39322;SDS011;25036;53.638;10.134;2023-06-26T05:47:01;6.53;;;5.93;;
39322;SDS011;25036;53.638;10.134;2023-06-26T05:48:01;5.50;;;4.97;;
39322;SDS011;25036;53.638;10.134;2023-06-26T05:49:01;6.13;;;5.53;;
39322;SDS011;25036;53.638;10.134;2023-06-26T05:50:02;6.93;;;5.30;;
39322;SDS011;25036;53.638;10.134;2023-06-26T05:51:02;5.68;;;5.18;;
39322;SDS011;25036;53.638;10.134;2023-06-26T05:52:03;6.03;;;5.35;;
39322;SDS011;25036;53.638;10.134;2023-06-26T05:53:04;8.05;;;5.68;;
39322;SDS011;25036;53.638;10.134;2023-06-26T05:54:05;6.75;;;5.78;;
39322;SDS011;25036;53.638;10.134;2023-06-26T05:55:05;6.47;;;5.38;;
39322;SDS011;25036;53.638;10.134;2023-06-26T05:56:06;6.97;;;5.45;;
39322;SDS011;25036;53.638;10.134;2023-06-26T05:57:06;7.55;;;5.20;;
39322;SDS011;25036;53.638;10.134;2023-06-26T05:58:06;6.95;;;5.53;;
39322;SDS011;25036;53.638;10.134;2023-06-26T05:59:07;10.50;;;5.80;;
39322;SDS011;25036;53.638;10.134;2023-06-26T06:00:07;7.50;;;5.55;;
39322;SDS011;25036;53.638;10.134;2023-06-26T06:01:10;7.72;;;5.43;;
39322;SDS011;25036;53.638;10.134;2023-06-26T06:02:11;6.47;;;5.03;;
39322;SDS011;25036;53.638;10.134;2023-06-26T06:03:11;10.23;;;5.70;;
39322;SDS011;25036;53.638;10.134;2023-06-26T06:04:11;5.83;;;5.33;;
39322;SDS011;25036;53.638;10.134;2023-06-26T06:05:11;6.07;;;5.47;;